sensor_id;sensor_type;location;lat;lon;timestamp;temperature;humidity
23556;DHT22;11956;53.184;8.578;2023-07-13T00:02:40;15.40;99.90
23556;DHT22;11956;53.184;8.578;2023-07-13T00:05:41;15.40;99.90
23556;DHT22;11956;53.184;8.578;2023-07-13T00:08:42;15.30;99.90
23556;DHT22;11956;53.184;8.578;2023-07-13T00:11:43;15.30;99.90
23556;DHT22;11956;53.184;8.578;2023-07-13T00:14:45;15.20;99.90
23556;DHT22;11956;53.184;8.578;2023-07-13T00:17:45;15.20;99.90
23556;DHT22;11956;53.184;8.578;2023-07-13T00:20:47;15.20;99.90
23556;DHT22;11956;53.184;8.578;2023-07-13T00:23:49;15.10;99.90
23556;DHT22;11956;53.184;8.578;2023-07-13T00:26:49;15.10;99.90
23556;DHT22;11956;53.184;8.578;2023-07-13T00:29:50;15.10;99.90
23556;DHT22;11956;53.184;8.578;2023-07-13T00:32:52;15.00;99.90
23556;DHT22;11956;53.184;8.578;2023-07-13T00:35:54;15.00;99.90
23556;DHT22;11956;53.184;8.578;2023-07-13T00:38:56;14.90;99.90
23556;DHT22;11956;53.184;8.578;2023-07-13T00:41:59;14.80;99.90
23556;DHT22;11956;53.184;8.578;2023-07-13T00:48:16;14.70;99.90
23556;DHT22;11956;53.184;8.578;2023-07-13T00:51:25;14.80;99.90
23556;DHT22;11956;53.184;8.578;2023-07-13T00:54:41;14.70;99.90
23556;DHT22;11956;53.184;8.578;2023-07-13T00:57:45;14.80;99.90
23556;DHT22;11956;53.184;8.578;2023-07-13T01:00:47;14.70;99.90
23556;DHT22;11956;53.184;8.578;2023-07-13T01:03:49;14.70;99.90
23556;DHT22;11956;53.184;8.578;2023-07-13T01:06:51;14.60;99.90
23556;DHT22;11956;53.184;8.578;2023-07-13T01:09:52;14.60;99.90
23556;DHT22;11956;53.184;8.578;2023-07-13T01:12:54;14.60;99.90
23556;DHT22;11956;53.184;8.578;2023-07-13T01:16:01;14.70;99.90
23556;DHT22;11956;53.184;8.578;2023-07-13T01:19:19;14.70;99.90
23556;DHT22;11956;53.184;8.578;2023-07-13T01:22:39;14.70;99.90
23556;DHT22;11956;53.184;8.578;2023-07-13T01:25:40;14.70;99.90
23556;DHT22;11956;53.184;8.578;2023-07-13T01:28:41;14.70;99.90
23556;DHT22;11956;53.184;8.578;2023-07-13T01:31:42;14.60;99.90
23556;DHT22;11956;53.184;8.578;2023-07-13T01:34:44;14.60;99.90
23556;DHT22;11956;53.184;8.578;2023-07-13T01:37:47;14.60;99.90
23556;DHT22;11956;53.184;8.578;2023-07-13T01:40:50;14.60;99.90
23556;DHT22;11956;53.184;8.578;2023-07-13T01:43:52;14.60;99.90
23556;DHT22;11956;53.184;8.578;2023-07-13T01:46:53;14.60;99.90
23556;DHT22;11956;53.184;8.578;2023-07-13T01:49:54;14.70;99.90
23556;DHT22;11956;53.184;8.578;2023-07-13T01:52:55;14.60;99.90
23556;DHT22;11956;53.184;8.578;2023-07-13T01:55:55;14.60;99.90
23556;DHT22;11956;53.184;8.578;2023-07-13T01:58:56;14.70;99.90
23556;DHT22;11956;53.184;8.578;2023-07-13T02:01:57;14.70;99.90
23556;DHT22;11956;53.184;8.578;2023-07-13T02:04:58;14.70;99.90
23556;DHT22;11956;53.184;8.578;2023-07-13T02:07:59;14.70;99.90
23556;DHT22;11956;53.184;8.578;2023-07-13T02:11:02;14.70;99.90
23556;DHT22;11956;53.184;8.578;2023-07-13T02:14:03;14.70;99.90
23556;DHT22;11956;53.184;8.578;2023-07-13T02:17:05;14.70;99.90
23556;DHT22;11956;53.184;8.578;2023-07-13T02:20:06;14.70;99.90
23556;DHT22;11956;53.184;8.578;2023-07-13T02:23:08;14.70;99.90
23556;DHT22;11956;53.184;8.578;2023-07-13T02:26:10;14.60;99.90
23556;DHT22;11956;53.184;8.578;2023-07-13T02:29:11;14.50;99.90
23556;DHT22;11956;53.184;8.578;2023-07-13T02:32:12;14.50;99.90
23556;DHT22;11956;53.184;8.578;2023-07-13T02:35:13;14.50;99.90
23556;DHT22;11956;53.184;8.578;2023-07-13T02:38:14;14.60;99.90
23556;DHT22;11956;53.184;8.578;2023-07-13T02:41:15;14.60;99.90
23556;DHT22;11956;53.184;8.578;2023-07-13T02:44:16;14.70;99.90
23556;DHT22;11956;53.184;8.578;2023-07-13T02:47:17;14.70;99.90
23556;DHT22;11956;53.184;8.578;2023-07-13T02:50:18;14.70;99.90
23556;DHT22;11956;53.184;8.578;2023-07-13T02:53:19;14.70;99.90
23556;DHT22;11956;53.184;8.578;2023-07-13T02:56:23;14.90;99.90
23556;DHT22;11956;53.184;8.578;2023-07-13T02:59:25;14.90;99.90
23556;DHT22;11956;53.184;8.578;2023-07-13T03:02:27;15.10;99.90
23556;DHT22;11956;53.184;8.578;2023-07-13T03:05:28;15.10;99.90
23556;DHT22;11956;53.184;8.578;2023-07-13T03:08:31;15.20;99.90
23556;DHT22;11956;53.184;8.578;2023-07-13T03:11:33;15.20;99.90
23556;DHT22;11956;53.184;8.578;2023-07-13T03:14:42;15.30;99.90
23556;DHT22;11956;53.184;8.578;2023-07-13T03:17:43;15.30;99.90
23556;DHT22;11956;53.184;8.578;2023-07-13T03:20:44;15.40;99.90
23556;DHT22;11956;53.184;8.578;2023-07-13T03:23:47;15.50;99.90
23556;DHT22;11956;53.184;8.578;2023-07-13T03:26:48;15.60;99.90
23556;DHT22;11956;53.184;8.578;2023-07-13T03:29:49;15.60;99.90
23556;DHT22;11956;53.184;8.578;2023-07-13T03:32:52;15.60;99.90
23556;DHT22;11956;53.184;8.578;2023-07-13T03:35:53;15.70;99.90
23556;DHT22;11956;53.184;8.578;2023-07-13T03:38:57;15.80;99.90
23556;DHT22;11956;53.184;8.578;2023-07-13T03:42:08;15.90;99.90
23556;DHT22;11956;53.184;8.578;2023-07-13T03:45:09;16.00;99.90
23556;DHT22;11956;53.184;8.578;2023-07-13T03:48:10;16.10;99.90
23556;DHT22;11956;53.184;8.578;2023-07-13T03:51:13;16.10;99.90
23556;DHT22;11956;53.184;8.578;2023-07-13T03:54:15;16.20;99.90
23556;DHT22;11956;53.184;8.578;2023-07-13T03:57:17;16.20;99.90
23556;DHT22;11956;53.184;8.578;2023-07-13T04:00:19;16.20;99.90
23556;DHT22;11956;53.184;8.578;2023-07-13T04:03:20;16.30;99.90
23556;DHT22;11956;53.184;8.578;2023-07-13T04:06:32;16.30;99.90
23556;DHT22;11956;53.184;8.578;2023-07-13T04:09:33;16.30;99.90
23556;DHT22;11956;53.184;8.578;2023-07-13T04:12:34;16.40;99.90
23556;DHT22;11956;53.184;8.578;2023-07-13T04:15:35;16.40;99.90
23556;DHT22;11956;53.184;8.578;2023-07-13T04:18:36;16.50;99.90
23556;DHT22;11956;53.184;8.578;2023-07-13T04:21:37;16.50;99.90
23556;DHT22;11956;53.184;8.578;2023-07-13T04:24:38;16.70;99.90
23556;DHT22;11956;53.184;8.578;2023-07-13T04:27:39;16.70;99.90
23556;DHT22;11956;53.184;8.578;2023-07-13T04:30:40;16.70;99.90
23556;DHT22;11956;53.184;8.578;2023-07-13T04:33:40;16.80;99.90
23556;DHT22;11956;53.184;8.578;2023-07-13T04:36:42;16.80;99.90
23556;DHT22;11956;53.184;8.578;2023-07-13T04:39:43;17.00;99.90
23556;DHT22;11956;53.184;8.578;2023-07-13T04:42:45;17.10;99.90
23556;DHT22;11956;53.184;8.578;2023-07-13T04:45:46;17.20;99.90
23556;DHT22;11956;53.184;8.578;2023-07-13T04:48:48;17.30;99.90
23556;DHT22;11956;53.184;8.578;2023-07-13T04:51:49;17.30;99.90
23556;DHT22;11956;53.184;8.578;2023-07-13T04:54:50;17.40;99.90
23556;DHT22;11956;53.184;8.578;2023-07-13T04:57:51;17.40;99.90
23556;DHT22;11956;53.184;8.578;2023-07-13T05:00:52;17.60;99.90
23556;DHT22;11956;53.184;8.578;2023-07-13T05:03:53;17.70;99.90
23556;DHT22;11956;53.184;8.578;2023-07-13T05:06:56;17.70;99.90
23556;DHT22;11956;53.184;8.578;2023-07-13T05:09:57;17.70;99.90
23556;DHT22;11956;53.184;8.578;2023-07-13T05:12:58;17.80;99.90
23556;DHT22;11956;53.184;8.578;2023-07-13T05:16:01;18.00;99.90
23556;DHT22;11956;53.184;8.578;2023-07-13T05:19:04;18.10;99.90
23556;DHT22;11956;53.184;8.578;2023-07-13T05:22:05;18.10;99.90
23556;DHT22;11956;53.184;8.578;2023-07-13T05:25:07;18.10;99.90
23556;DHT22;11956;53.184;8.578;2023-07-13T05:28:09;18.20;99.90
23556;DHT22;11956;53.184;8.578;2023-07-13T05:31:10;18.20;99.90
23556;DHT22;11956;53.184;8.578;2023-07-13T05:34:11;18.10;99.90
23556;DHT22;11956;53.184;8.578;2023-07-13T05:37:12;18.30;99.90
23556;DHT22;11956;53.184;8.578;2023-07-13T05:40:13;18.50;99.90
23556;DHT22;11956;53.184;8.578;2023-07-13T05:43:14;18.60;99.90
23556;DHT22;11956;53.184;8.578;2023-07-13T05:46:15;18.70;99.90
23556;DHT22;11956;53.184;8.578;2023-07-13T05:49:16;18.80;99.90
23556;DHT22;11956;53.184;8.578;2023-07-13T05:52:16;19.00;99.90
23556;DHT22;11956;53.184;8.578;2023-07-13T05:55:18;19.10;99.90
23556;DHT22;11956;53.184;8.578;2023-07-13T05:58:19;19.30;99.90
23556;DHT22;11956;53.184;8.578;2023-07-13T06:01:20;19.50;99.90
23556;DHT22;11956;53.184;8.578;2023-07-13T06:04:22;19.80;99.90
23556;DHT22;11956;53.184;8.578;2023-07-13T06:07:23;19.90;99.90
23556;DHT22;11956;53.184;8.578;2023-07-13T06:10:24;19.80;99.90
23556;DHT22;11956;53.184;8.578;2023-07-13T06:13:25;19.70;99.90
23556;DHT22;11956;53.184;8.578;2023-07-13T06:16:26;19.60;99.90
23556;DHT22;11956;53.184;8.578;2023-07-13T06:19:29;19.70;99.90
23556;DHT22;11956;53.184;8.578;2023-07-13T06:22:30;20.00;99.90
23556;DHT22;11956;53.184;8.578;2023-07-13T06:25:30;20.30;99.90
23556;DHT22;11956;53.184;8.578;2023-07-13T06:28:32;20.80;99.90
23556;DHT22;11956;53.184;8.578;2023-07-13T06:31:33;21.00;99.90
23556;DHT22;11956;53.184;8.578;2023-07-13T06:34:34;20.90;99.90
23556;DHT22;11956;53.184;8.578;2023-07-13T06:37:35;20.60;99.90
23556;DHT22;11956;53.184;8.578;2023-07-13T06:40:36;20.40;99.90
23556;DHT22;11956;53.184;8.578;2023-07-13T06:43:37;20.10;99.90
23556;DHT22;11956;53.184;8.578;2023-07-13T06:46:38;19.80;99.90
23556;DHT22;11956;53.184;8.578;2023-07-13T06:49:38;19.70;99.90
23556;DHT22;11956;53.184;8.578;2023-07-13T06:52:39;20.00;99.90
23556;DHT22;11956;53.184;8.578;2023-07-13T06:55:43;20.30;99.90
23556;DHT22;11956;53.184;8.578;2023-07-13T06:58:44;20.60;99.90
23556;DHT22;11956;53.184;8.578;2023-07-13T07:01:45;21.50;99.90
23556;DHT22;11956;53.184;8.578;2023-07-13T07:04:45;23.10;99.90
23556;DHT22;11956;53.184;8.578;2023-07-13T07:07:46;24.30;99.90
23556;DHT22;11956;53.184;8.578;2023-07-13T07:10:47;26.10;99.90
23556;DHT22;11956;53.184;8.578;2023-07-13T07:13:53;27.30;99.90
23556;DHT22;11956;53.184;8.578;2023-07-13T07:16:54;28.10;99.90
23556;DHT22;11956;53.184;8.578;2023-07-13T07:19:55;28.60;99.90
23556;DHT22;11956;53.184;8.578;2023-07-13T07:22:56;28.10;99.90
23556;DHT22;11956;53.184;8.578;2023-07-13T07:25:57;28.30;99.90
23556;DHT22;11956;53.184;8.578;2023-07-13T07:28:58;28.00;99.90
23556;DHT22;11956;53.184;8.578;2023-07-13T07:31:59;28.60;99.90
23556;DHT22;11956;53.184;8.578;2023-07-13T07:35:01;29.60;98.30
23556;DHT22;11956;53.184;8.578;2023-07-13T07:38:02;31.40;95.20
23556;DHT22;11956;53.184;8.578;2023-07-13T07:41:04;31.80;93.90
23556;DHT22;11956;53.184;8.578;2023-07-13T07:44:05;31.80;93.50
23556;DHT22;11956;53.184;8.578;2023-07-13T07:47:08;31.50;93.60
23556;DHT22;11956;53.184;8.578;2023-07-13T07:50:10;31.00;93.70
23556;DHT22;11956;53.184;8.578;2023-07-13T07:53:11;30.60;94.30
23556;DHT22;11956;53.184;8.578;2023-07-13T07:56:13;30.50;94.40
23556;DHT22;11956;53.184;8.578;2023-07-13T07:59:16;29.60;94.90
23556;DHT22;11956;53.184;8.578;2023-07-13T08:02:17;26.80;99.30
23556;DHT22;11956;53.184;8.578;2023-07-13T08:05:18;26.30;99.90
23556;DHT22;11956;53.184;8.578;2023-07-13T08:08:19;26.60;99.90
23556;DHT22;11956;53.184;8.578;2023-07-13T08:11:21;25.10;99.90
23556;DHT22;11956;53.184;8.578;2023-07-13T08:14:22;25.60;99.90
23556;DHT22;11956;53.184;8.578;2023-07-13T08:17:24;26.10;99.90
23556;DHT22;11956;53.184;8.578;2023-07-13T08:20:25;27.90;99.40
23556;DHT22;11956;53.184;8.578;2023-07-13T08:23:26;28.30;98.20
23556;DHT22;11956;53.184;8.578;2023-07-13T08:26:27;28.80;97.20
23556;DHT22;11956;53.184;8.578;2023-07-13T08:29:28;28.90;97.10
23556;DHT22;11956;53.184;8.578;2023-07-13T08:32:29;30.10;95.50
23556;DHT22;11956;53.184;8.578;2023-07-13T08:35:29;31.80;93.40
23556;DHT22;11956;53.184;8.578;2023-07-13T08:38:30;33.20;90.30
23556;DHT22;11956;53.184;8.578;2023-07-13T08:41:31;33.10;88.60
23556;DHT22;11956;53.184;8.578;2023-07-13T08:51:34;34.30;84.30
23556;DHT22;11956;53.184;8.578;2023-07-13T08:54:44;34.70;82.10
23556;DHT22;11956;53.184;8.578;2023-07-13T08:57:54;36.00;78.90
23556;DHT22;11956;53.184;8.578;2023-07-13T09:01:06;37.00;73.40
23556;DHT22;11956;53.184;8.578;2023-07-13T09:04:47;36.60;72.80
23556;DHT22;11956;53.184;8.578;2023-07-13T09:11:26;34.10;75.30
23556;DHT22;11956;53.184;8.578;2023-07-13T09:14:49;33.10;77.00
23556;DHT22;11956;53.184;8.578;2023-07-13T09:17:52;32.90;78.10
23556;DHT22;11956;53.184;8.578;2023-07-13T09:21:30;33.70;77.70
23556;DHT22;11956;53.184;8.578;2023-07-13T09:25:21;34.10;74.60
23556;DHT22;11956;53.184;8.578;2023-07-13T09:28:11;34.30;71.70
23556;DHT22;11956;53.184;8.578;2023-07-13T09:31:17;31.50;77.80
23556;DHT22;11956;53.184;8.578;2023-07-13T09:34:22;29.60;82.00
23556;DHT22;11956;53.184;8.578;2023-07-13T09:37:29;30.20;83.20
23556;DHT22;11956;53.184;8.578;2023-07-13T09:44:30;30.40;82.30
23556;DHT22;11956;53.184;8.578;2023-07-13T09:47:33;32.60;78.00
23556;DHT22;11956;53.184;8.578;2023-07-13T09:50:40;33.70;73.60
23556;DHT22;11956;53.184;8.578;2023-07-13T09:53:42;34.20;70.90
23556;DHT22;11956;53.184;8.578;2023-07-13T09:56:43;35.00;67.00
23556;DHT22;11956;53.184;8.578;2023-07-13T09:59:50;32.40;70.60
23556;DHT22;11956;53.184;8.578;2023-07-13T10:03:04;30.30;74.10
23556;DHT22;11956;53.184;8.578;2023-07-13T10:06:18;29.10;80.00
23556;DHT22;11956;53.184;8.578;2023-07-13T10:09:21;30.00;79.60
23556;DHT22;11956;53.184;8.578;2023-07-13T10:12:23;31.40;77.40
23556;DHT22;11956;53.184;8.578;2023-07-13T10:15:25;32.80;74.30
23556;DHT22;11956;53.184;8.578;2023-07-13T10:18:28;32.30;73.30
23556;DHT22;11956;53.184;8.578;2023-07-13T10:22:20;30.70;77.10
23556;DHT22;11956;53.184;8.578;2023-07-13T10:25:01;29.30;80.90
23556;DHT22;11956;53.184;8.578;2023-07-13T10:28:25;30.30;79.20
23556;DHT22;11956;53.184;8.578;2023-07-13T10:31:26;30.00;80.50
23556;DHT22;11956;53.184;8.578;2023-07-13T10:34:27;29.60;80.40
23556;DHT22;11956;53.184;8.578;2023-07-13T10:37:36;28.30;81.70
23556;DHT22;11956;53.184;8.578;2023-07-13T10:44:17;25.40;92.00
23556;DHT22;11956;53.184;8.578;2023-07-13T10:47:20;24.40;95.90
23556;DHT22;11956;53.184;8.578;2023-07-13T10:50:25;24.20;97.80
23556;DHT22;11956;53.184;8.578;2023-07-13T10:53:35;24.20;99.10
23556;DHT22;11956;53.184;8.578;2023-07-13T10:56:39;24.30;99.00
23556;DHT22;11956;53.184;8.578;2023-07-13T10:59:40;24.10;99.80
23556;DHT22;11956;53.184;8.578;2023-07-13T11:02:41;23.80;99.90
23556;DHT22;11956;53.184;8.578;2023-07-13T11:05:43;24.30;99.90
23556;DHT22;11956;53.184;8.578;2023-07-13T11:11:48;25.20;97.30
23556;DHT22;11956;53.184;8.578;2023-07-13T11:17:55;25.20;98.40
23556;DHT22;11956;53.184;8.578;2023-07-13T11:21:21;24.90;99.90
23556;DHT22;11956;53.184;8.578;2023-07-13T11:24:29;24.30;99.90
23556;DHT22;11956;53.184;8.578;2023-07-13T11:31:15;22.80;99.90
23556;DHT22;11956;53.184;8.578;2023-07-13T11:34:21;22.20;99.90
23556;DHT22;11956;53.184;8.578;2023-07-13T11:37:28;21.10;99.90
23556;DHT22;11956;53.184;8.578;2023-07-13T11:40:30;20.10;99.90
23556;DHT22;11956;53.184;8.578;2023-07-13T11:43:31;19.40;99.90
23556;DHT22;11956;53.184;8.578;2023-07-13T11:46:34;18.80;99.90
23556;DHT22;11956;53.184;8.578;2023-07-13T11:49:42;18.50;99.90
23556;DHT22;11956;53.184;8.578;2023-07-13T11:52:50;18.30;99.90
23556;DHT22;11956;53.184;8.578;2023-07-13T11:55:54;18.20;99.90
23556;DHT22;11956;53.184;8.578;2023-07-13T11:58:57;18.20;99.90
23556;DHT22;11956;53.184;8.578;2023-07-13T12:02:00;18.30;99.90
23556;DHT22;11956;53.184;8.578;2023-07-13T12:05:04;18.30;99.90
23556;DHT22;11956;53.184;8.578;2023-07-13T12:08:09;18.20;99.90
23556;DHT22;11956;53.184;8.578;2023-07-13T12:11:18;18.10;99.90
23556;DHT22;11956;53.184;8.578;2023-07-13T12:14:19;18.00;99.90
23556;DHT22;11956;53.184;8.578;2023-07-13T12:17:23;18.10;99.90
23556;DHT22;11956;53.184;8.578;2023-07-13T12:20:27;18.50;99.90
23556;DHT22;11956;53.184;8.578;2023-07-13T12:23:36;18.90;99.90
23556;DHT22;11956;53.184;8.578;2023-07-13T12:26:37;19.10;99.90
23556;DHT22;11956;53.184;8.578;2023-07-13T12:29:38;19.30;99.90
23556;DHT22;11956;53.184;8.578;2023-07-13T12:32:38;19.50;99.90
23556;DHT22;11956;53.184;8.578;2023-07-13T12:35:42;19.90;99.90
23556;DHT22;11956;53.184;8.578;2023-07-13T12:38:46;20.50;99.90
23556;DHT22;11956;53.184;8.578;2023-07-13T12:41:49;21.30;99.90
23556;DHT22;11956;53.184;8.578;2023-07-13T12:44:58;21.20;99.90
23556;DHT22;11956;53.184;8.578;2023-07-13T12:48:20;20.80;99.90
23556;DHT22;11956;53.184;8.578;2023-07-13T12:51:22;20.80;99.90
23556;DHT22;11956;53.184;8.578;2023-07-13T12:54:27;20.70;99.90
23556;DHT22;11956;53.184;8.578;2023-07-13T12:57:28;21.00;99.90
23556;DHT22;11956;53.184;8.578;2023-07-13T13:00:33;21.70;99.90
23556;DHT22;11956;53.184;8.578;2023-07-13T13:03:40;22.10;99.90
23556;DHT22;11956;53.184;8.578;2023-07-13T13:07:02;22.50;99.90
23556;DHT22;11956;53.184;8.578;2023-07-13T13:10:12;22.70;99.90
23556;DHT22;11956;53.184;8.578;2023-07-13T13:13:14;22.90;99.90
23556;DHT22;11956;53.184;8.578;2023-07-13T13:16:35;23.30;99.90
23556;DHT22;11956;53.184;8.578;2023-07-13T13:19:38;23.70;99.90
23556;DHT22;11956;53.184;8.578;2023-07-13T13:22:39;23.80;99.90
23556;DHT22;11956;53.184;8.578;2023-07-13T13:25:40;24.00;99.90
23556;DHT22;11956;53.184;8.578;2023-07-13T13:28:42;24.00;99.90
23556;DHT22;11956;53.184;8.578;2023-07-13T13:31:45;23.70;99.90
23556;DHT22;11956;53.184;8.578;2023-07-13T13:34:46;23.80;99.90
23556;DHT22;11956;53.184;8.578;2023-07-13T13:37:47;23.70;99.90
23556;DHT22;11956;53.184;8.578;2023-07-13T13:40:50;23.30;99.90
23556;DHT22;11956;53.184;8.578;2023-07-13T13:43:51;23.10;99.90
23556;DHT22;11956;53.184;8.578;2023-07-13T13:46:54;23.20;99.90
23556;DHT22;11956;53.184;8.578;2023-07-13T13:49:56;23.20;99.90
23556;DHT22;11956;53.184;8.578;2023-07-13T13:52:57;23.60;99.90
23556;DHT22;11956;53.184;8.578;2023-07-13T13:55:58;23.20;99.90
23556;DHT22;11956;53.184;8.578;2023-07-13T13:59:00;23.10;99.90
23556;DHT22;11956;53.184;8.578;2023-07-13T14:02:01;22.90;99.90
23556;DHT22;11956;53.184;8.578;2023-07-13T14:05:03;22.70;99.90
23556;DHT22;11956;53.184;8.578;2023-07-13T14:08:18;22.30;99.90
23556;DHT22;11956;53.184;8.578;2023-07-13T14:11:21;21.80;99.90
23556;DHT22;11956;53.184;8.578;2023-07-13T14:14:23;21.30;99.90
23556;DHT22;11956;53.184;8.578;2023-07-13T14:17:26;20.80;99.90
23556;DHT22;11956;53.184;8.578;2023-07-13T14:20:27;20.30;99.90
23556;DHT22;11956;53.184;8.578;2023-07-13T14:23:30;20.00;99.90
23556;DHT22;11956;53.184;8.578;2023-07-13T14:26:35;19.40;99.90
23556;DHT22;11956;53.184;8.578;2023-07-13T14:29:38;18.60;99.90
23556;DHT22;11956;53.184;8.578;2023-07-13T14:32:41;17.90;99.90
23556;DHT22;11956;53.184;8.578;2023-07-13T14:35:42;17.50;99.90
23556;DHT22;11956;53.184;8.578;2023-07-13T14:38:43;17.30;99.90
23556;DHT22;11956;53.184;8.578;2023-07-13T14:41:44;16.90;99.90
23556;DHT22;11956;53.184;8.578;2023-07-13T14:44:45;16.60;99.90
23556;DHT22;11956;53.184;8.578;2023-07-13T14:47:47;16.50;99.90
23556;DHT22;11956;53.184;8.578;2023-07-13T14:50:54;16.40;99.90
23556;DHT22;11956;53.184;8.578;2023-07-13T14:54:01;16.40;99.90
23556;DHT22;11956;53.184;8.578;2023-07-13T14:57:03;16.40;99.90
23556;DHT22;11956;53.184;8.578;2023-07-13T15:00:24;16.50;99.90
23556;DHT22;11956;53.184;8.578;2023-07-13T15:03:25;16.20;99.90
23556;DHT22;11956;53.184;8.578;2023-07-13T15:06:26;16.10;99.90
23556;DHT22;11956;53.184;8.578;2023-07-13T15:09:27;16.30;99.90
23556;DHT22;11956;53.184;8.578;2023-07-13T15:12:32;16.40;99.90
23556;DHT22;11956;53.184;8.578;2023-07-13T15:15:33;16.40;99.90
23556;DHT22;11956;53.184;8.578;2023-07-13T15:18:35;16.50;99.90
23556;DHT22;11956;53.184;8.578;2023-07-13T15:21:38;16.40;99.90
23556;DHT22;11956;53.184;8.578;2023-07-13T15:24:39;16.20;99.90
23556;DHT22;11956;53.184;8.578;2023-07-13T15:27:40;16.40;99.90
23556;DHT22;11956;53.184;8.578;2023-07-13T15:30:44;16.50;99.90
23556;DHT22;11956;53.184;8.578;2023-07-13T15:33:46;16.30;99.90
23556;DHT22;11956;53.184;8.578;2023-07-13T15:36:49;16.40;99.90
23556;DHT22;11956;53.184;8.578;2023-07-13T15:39:50;16.50;99.90
23556;DHT22;11956;53.184;8.578;2023-07-13T15:42:52;16.40;99.90
23556;DHT22;11956;53.184;8.578;2023-07-13T15:45:53;16.40;99.90
23556;DHT22;11956;53.184;8.578;2023-07-13T15:48:54;16.40;99.90
23556;DHT22;11956;53.184;8.578;2023-07-13T15:51:55;16.40;99.90
23556;DHT22;11956;53.184;8.578;2023-07-13T15:54:58;16.50;99.90
23556;DHT22;11956;53.184;8.578;2023-07-13T15:58:00;16.40;99.90
23556;DHT22;11956;53.184;8.578;2023-07-13T16:01:02;16.20;99.90
23556;DHT22;11956;53.184;8.578;2023-07-13T16:04:03;16.20;99.90
23556;DHT22;11956;53.184;8.578;2023-07-13T16:07:09;16.10;99.90
23556;DHT22;11956;53.184;8.578;2023-07-13T16:10:25;16.00;99.90
23556;DHT22;11956;53.184;8.578;2023-07-13T16:13:41;15.80;99.90
23556;DHT22;11956;53.184;8.578;2023-07-13T16:16:42;15.90;99.90
23556;DHT22;11956;53.184;8.578;2023-07-13T16:19:43;16.10;99.90
23556;DHT22;11956;53.184;8.578;2023-07-13T16:22:49;16.10;99.90
23556;DHT22;11956;53.184;8.578;2023-07-13T16:25:52;16.20;99.90
23556;DHT22;11956;53.184;8.578;2023-07-13T16:28:54;16.60;99.90
23556;DHT22;11956;53.184;8.578;2023-07-13T16:32:05;16.70;99.90
23556;DHT22;11956;53.184;8.578;2023-07-13T16:35:08;16.90;99.90
23556;DHT22;11956;53.184;8.578;2023-07-13T16:38:20;17.10;99.90
23556;DHT22;11956;53.184;8.578;2023-07-13T16:41:21;17.40;99.90
23556;DHT22;11956;53.184;8.578;2023-07-13T16:44:23;17.50;99.90
23556;DHT22;11956;53.184;8.578;2023-07-13T16:50:34;17.50;99.90
23556;DHT22;11956;53.184;8.578;2023-07-13T16:53:35;17.50;99.90
23556;DHT22;11956;53.184;8.578;2023-07-13T16:56:36;17.50;99.90
23556;DHT22;11956;53.184;8.578;2023-07-13T16:59:37;17.40;99.90
23556;DHT22;11956;53.184;8.578;2023-07-13T17:02:38;17.30;99.90
23556;DHT22;11956;53.184;8.578;2023-07-13T17:05:41;17.30;99.90
23556;DHT22;11956;53.184;8.578;2023-07-13T17:08:46;17.40;99.90
23556;DHT22;11956;53.184;8.578;2023-07-13T17:11:47;17.40;99.90
23556;DHT22;11956;53.184;8.578;2023-07-13T17:14:48;17.40;99.90
23556;DHT22;11956;53.184;8.578;2023-07-13T17:17:49;17.40;99.90
23556;DHT22;11956;53.184;8.578;2023-07-13T17:20:51;17.50;99.90
23556;DHT22;11956;53.184;8.578;2023-07-13T17:23:53;17.40;99.90
23556;DHT22;11956;53.184;8.578;2023-07-13T17:26:54;17.50;99.90
23556;DHT22;11956;53.184;8.578;2023-07-13T17:29:56;17.50;99.90
23556;DHT22;11956;53.184;8.578;2023-07-13T17:32:57;17.50;99.90
23556;DHT22;11956;53.184;8.578;2023-07-13T17:36:00;17.60;99.90
23556;DHT22;11956;53.184;8.578;2023-07-13T17:39:04;17.60;99.90
23556;DHT22;11956;53.184;8.578;2023-07-13T17:42:12;17.60;99.90
23556;DHT22;11956;53.184;8.578;2023-07-13T17:45:13;17.60;99.90
23556;DHT22;11956;53.184;8.578;2023-07-13T17:48:20;17.80;99.90
23556;DHT22;11956;53.184;8.578;2023-07-13T17:51:21;17.80;99.90
23556;DHT22;11956;53.184;8.578;2023-07-13T17:54:23;18.00;99.90
23556;DHT22;11956;53.184;8.578;2023-07-13T17:57:25;18.10;99.90
23556;DHT22;11956;53.184;8.578;2023-07-13T18:00:28;18.10;99.90
23556;DHT22;11956;53.184;8.578;2023-07-13T18:03:39;18.30;99.90
23556;DHT22;11956;53.184;8.578;2023-07-13T18:06:45;18.40;99.90
23556;DHT22;11956;53.184;8.578;2023-07-13T18:09:53;18.40;99.90
23556;DHT22;11956;53.184;8.578;2023-07-13T18:12:54;18.40;99.90
23556;DHT22;11956;53.184;8.578;2023-07-13T18:15:55;18.40;99.90
23556;DHT22;11956;53.184;8.578;2023-07-13T18:19:00;18.40;99.90
23556;DHT22;11956;53.184;8.578;2023-07-13T18:22:05;18.40;99.90
23556;DHT22;11956;53.184;8.578;2023-07-13T18:25:15;18.50;99.90
23556;DHT22;11956;53.184;8.578;2023-07-13T18:28:20;18.50;99.90
23556;DHT22;11956;53.184;8.578;2023-07-13T18:31:23;18.70;99.90
23556;DHT22;11956;53.184;8.578;2023-07-13T18:34:26;18.70;99.90
23556;DHT22;11956;53.184;8.578;2023-07-13T18:37:27;18.70;99.90
23556;DHT22;11956;53.184;8.578;2023-07-13T18:40:29;18.80;99.90
23556;DHT22;11956;53.184;8.578;2023-07-13T18:43:30;18.70;99.90
23556;DHT22;11956;53.184;8.578;2023-07-13T18:46:32;18.70;99.90
23556;DHT22;11956;53.184;8.578;2023-07-13T18:49:34;18.70;99.90
23556;DHT22;11956;53.184;8.578;2023-07-13T18:52:35;18.60;99.90
23556;DHT22;11956;53.184;8.578;2023-07-13T18:55:39;18.50;99.90
23556;DHT22;11956;53.184;8.578;2023-07-13T18:58:41;18.30;99.90
23556;DHT22;11956;53.184;8.578;2023-07-13T19:01:43;18.30;99.90
23556;DHT22;11956;53.184;8.578;2023-07-13T19:04:47;18.20;99.90
23556;DHT22;11956;53.184;8.578;2023-07-13T19:07:48;18.10;99.90
23556;DHT22;11956;53.184;8.578;2023-07-13T19:10:51;18.10;99.90
23556;DHT22;11956;53.184;8.578;2023-07-13T19:13:53;18.00;99.90
23556;DHT22;11956;53.184;8.578;2023-07-13T19:16:55;18.00;99.90
23556;DHT22;11956;53.184;8.578;2023-07-13T19:19:57;18.00;99.90
23556;DHT22;11956;53.184;8.578;2023-07-13T19:23:02;17.90;99.90
23556;DHT22;11956;53.184;8.578;2023-07-13T19:26:30;17.80;99.90
23556;DHT22;11956;53.184;8.578;2023-07-13T19:29:33;17.80;99.90
23556;DHT22;11956;53.184;8.578;2023-07-13T19:32:36;17.70;99.90
23556;DHT22;11956;53.184;8.578;2023-07-13T19:35:37;17.70;99.90
23556;DHT22;11956;53.184;8.578;2023-07-13T19:38:38;17.70;99.90
23556;DHT22;11956;53.184;8.578;2023-07-13T19:41:40;17.70;99.90
23556;DHT22;11956;53.184;8.578;2023-07-13T19:44:41;17.60;99.90
23556;DHT22;11956;53.184;8.578;2023-07-13T19:47:42;17.60;99.90
23556;DHT22;11956;53.184;8.578;2023-07-13T19:50:43;17.60;99.90
23556;DHT22;11956;53.184;8.578;2023-07-13T19:53:44;17.60;99.90